Time;durP1;ratioP1;P1;durP2;ratioP2;P2;SDS_P1;SDS_P2;PMS_P1;PMS_P2;Temp;Humidity;BMP_temperature;BMP_pressure;BME280_temperature;BME280_humidity;BME280_pressure;Samples;Min_cycle;Max_cycle;Signal;HPM_P1;HPM_P2
2022/04/18 00:01:54;;;;;;;15.57;9.50;;;;;;;;;;5039299;28;20437;-83
2022/04/18 00:04:20;;;;;;;18.30;9.43;;;2.00;99.90;;;;;;5039432;28;20428;-82
2022/04/18 00:06:46;;;;;;;15.47;8.30;;;;;;;;;;5040862;28;20174;-82
2022/04/18 00:09:12;;;;;;;11.30;7.67;;;;;;;;;;5039372;28;20178;-82
2022/04/18 00:11:38;;;;;;;9.47;6.17;;;;;;;;;;5040759;28;20425;-83
2022/04/18 00:14:04;;;;;;;7.73;5.83;;;1.80;99.90;;;;;;5038695;28;20463;-83
2022/04/18 00:16:30;;;;;;;9.20;5.83;;;1.80;99.90;;;;;;5039635;28;20785;-82
2022/04/18 00:18:55;;;;;;;7.97;5.90;;;1.70;99.90;;;;;;5039387;28;20706;-83
2022/04/18 00:21:23;;;;;;;8.90;5.33;;;;;;;;;;5040269;28;20198;-82
2022/04/18 00:23:49;;;;;;;6.40;4.93;;;1.60;99.90;;;;;;5038977;28;20209;-83
2022/04/18 00:26:15;;;;;;;6.90;4.87;;;1.60;99.90;;;;;;5040171;28;20417;-82
2022/04/18 00:28:41;;;;;;;6.30;4.87;;;1.60;99.90;;;;;;5040191;28;20423;-82
2022/04/18 00:31:07;;;;;;;5.70;4.43;;;;;;;;;;5039770;28;20213;-82
2022/04/18 00:33:33;;;;;;;6.83;3.90;;;1.60;99.90;;;;;;5039089;28;20413;-82
2022/04/18 00:35:59;;;;;;;7.40;4.20;;;2.90;99.90;;;;;;5039038;28;20268;-83
2022/04/18 00:38:25;;;;;;;7.67;3.50;;;;;;;;;;5040207;28;20646;-82
2022/04/18 00:40:51;;;;;;;5.13;3.37;;;;;;;;;;5040908;28;20738;-82
2022/04/18 00:43:17;;;;;;;4.80;4.10;;;1.50;99.90;;;;;;5040705;28;20409;-82
2022/04/18 00:45:43;;;;;;;6.90;3.97;;;1.50;99.90;;;;;;5041493;28;20419;-82
2022/04/18 00:48:08;;;;;;;3.63;3.10;;;1.50;99.90;;;;;;5039722;28;20174;-82
2022/04/18 00:50:35;;;;;;;6.40;3.43;;;1.50;99.90;;;;;;5039280;28;20245;-82
2022/04/18 00:53:03;;;;;;;4.40;3.00;;;1.50;99.90;;;;;;5038772;28;20582;-82
2022/04/18 00:55:32;;;;;;;4.80;3.23;;;1.50;99.90;;;;;;5040232;28;20413;-83
2022/04/18 00:58:00;;;;;;;4.43;3.70;;;1.50;99.90;;;;;;5039994;28;20492;-82
2022/04/18 01:00:26;;;;;;;5.73;3.63;;;1.40;99.90;;;;;;5039241;28;20441;-82
2022/04/18 01:02:52;;;;;;;5.70;3.70;;;;;;;;;;5039741;28;20915;-82
2022/04/18 01:05:18;;;;;;;5.57;4.00;;;;;;;;;;5038381;28;20174;-82
2022/04/18 01:07:44;;;;;;;4.00;3.60;;;;;;;;;;5038572;28;20420;-82
2022/04/18 01:10:10;;;;;;;6.07;3.87;;;1.30;99.90;;;;;;5038375;28;20980;-82
2022/04/18 01:12:36;;;;;;;4.43;3.63;;;1.30;99.90;;;;;;5040234;28;20507;-83
2022/04/18 01:15:02;;;;;;;4.50;3.63;;;;;;;;;;5039865;28;20174;-82
2022/04/18 01:17:28;;;;;;;4.90;3.70;;;1.20;99.90;;;;;;5038442;28;20496;-83
2022/04/18 01:19:54;;;;;;;4.27;3.40;;;1.20;99.90;;;;;;5038193;28;20453;-82
2022/04/18 01:22:20;;;;;;;5.37;3.20;;;1.20;99.90;;;;;;5038183;28;20280;-82
2022/04/18 01:30:16;;;;;;;5.33;3.30;;;1.00;99.90;;;;;;5039855;28;20452;-83
2022/04/18 01:32:42;;;;;;;3.53;3.20;;;1.00;99.90;;;;;;5037615;28;20424;-83
2022/04/18 01:35:08;;;;;;;4.10;3.40;;;1.10;99.90;;;;;;5038693;28;20466;-82
2022/04/18 01:37:36;;;;;;;7.13;4.23;;;1.00;99.90;;;;;;5038113;28;20433;-83
2022/04/18 01:40:03;;;;;;;4.63;3.63;;;1.10;99.90;;;;;;5038407;28;20420;-82
2022/04/18 01:42:29;;;;;;;7.70;4.00;;;1.10;99.90;;;;;;5039669;28;20470;-83
2022/04/18 01:44:54;;;;;;;4.10;3.23;;;1.80;99.90;;;;;;5038135;28;20421;-82
2022/04/18 01:47:20;;;;;;;5.10;3.60;;;1.10;99.90;;;;;;5038775;28;20190;-82
2022/04/18 01:49:46;;;;;;;4.43;3.27;;;1.10;99.90;;;;;;5037890;28;20198;-82
2022/04/18 01:52:12;;;;;;;5.23;3.70;;;;;;;;;;5039127;28;20593;-82
2022/04/18 01:54:37;;;;;;;4.20;3.23;;;1.00;99.90;;;;;;5039197;28;20620;-82
2022/04/18 01:57:04;;;;;;;3.47;3.10;;;0.90;99.90;;;;;;5039447;28;20174;-82
2022/04/18 01:59:29;;;;;;;4.43;3.53;;;0.80;99.90;;;;;;5038252;28;20551;-82
2022/04/18 02:01:55;;;;;;;4.03;3.50;;;0.70;99.90;;;;;;5037462;28;20445;-83
2022/04/18 02:04:21;;;;;;;5.47;3.63;;;0.70;99.90;;;;;;5041642;28;20190;-82
2022/04/18 02:06:47;;;;;;;4.93;3.33;;;;;;;;;;5038443;28;20193;-82
2022/04/18 02:09:12;;;;;;;4.60;3.60;;;0.60;99.90;;;;;;5040485;28;20260;-82
2022/04/18 02:11:39;;;;;;;5.50;3.60;;;;;;;;;;5042693;28;20190;-83
2022/04/18 02:14:05;;;;;;;4.43;3.30;;;;;;;;;;5041443;28;20174;-83
2022/04/18 02:16:30;;;;;;;4.97;3.20;;;0.40;99.90;;;;;;5042517;28;20503;-82
2022/04/18 02:18:56;;;;;;;4.40;3.40;;;2.00;99.90;;;;;;5042138;28;20246;-83
2022/04/18 02:21:23;;;;;;;3.73;3.30;;;;;;;;;;5041887;28;20198;-82
2022/04/18 02:23:49;;;;;;;4.40;3.17;;;;;;;;;;5040663;28;20686;-83
2022/04/18 02:26:16;;;;;;;6.10;3.73;;;;;;;;;;5041090;28;20487;-82
2022/04/18 02:28:42;;;;;;;4.13;3.23;;;;;;;;;;5042610;28;20408;-82
2022/04/18 02:31:08;;;;;;;5.00;3.43;;;0.40;99.90;;;;;;5042391;28;20813;-82
2022/04/18 02:33:34;;;;;;;6.17;3.97;;;0.60;99.90;;;;;;5041024;28;20504;-82
2022/04/18 02:36:01;;;;;;;5.90;3.90;;;2.40;99.90;;;;;;5042142;28;20895;-83
2022/04/18 02:38:27;;;;;;;6.63;4.00;;;1.40;99.90;;;;;;5041782;28;20190;-82
2022/04/18 02:40:53;;;;;;;4.63;3.33;;;;;;;;;;5041094;28;20893;-82
2022/04/18 02:43:19;;;;;;;5.23;3.37;;;0.30;99.90;;;;;;5041205;28;20417;-83
2022/04/18 02:45:45;;;;;;;5.40;3.90;;;;;;;;;;5041021;28;20439;-83
2022/04/18 02:48:11;;;;;;;6.50;3.27;;;;;;;;;;5041908;28;20181;-82
2022/04/18 02:50:37;;;;;;;5.07;3.90;;;0.30;99.90;;;;;;5040311;28;20563;-82
2022/04/18 02:53:05;;;;;;;6.67;4.13;;;0.20;99.90;;;;;;5041942;28;20490;-82
2022/04/18 02:55:32;;;;;;;5.20;3.57;;;;;;;;;;5040687;28;20269;-83
2022/04/18 02:57:57;;;;;;;4.70;3.50;;;0.20;99.90;;;;;;5042239;28;20406;-83
2022/04/18 03:00:23;;;;;;;8.57;5.53;;;;;;;;;;5042451;28;20436;-83
2022/04/18 03:02:49;;;;;;;11.20;5.83;;;0.20;99.90;;;;;;5040620;28;20239;-83
2022/04/18 03:05:15;;;;;;;12.17;7.50;;;;;;;;;;5041520;28;20522;-82
2022/04/18 03:07:41;;;;;;;13.93;7.57;;;0.20;99.90;;;;;;5040703;28;20652;-83
2022/04/18 03:10:08;;;;;;;12.47;6.70;;;0.20;99.90;;;;;;5042334;28;20456;-83
2022/04/18 03:12:34;;;;;;;13.37;7.23;;;0.10;99.90;;;;;;5041869;28;20411;-83
2022/04/18 03:15:00;;;;;;;11.90;7.13;;;;;;;;;;5041929;28;20899;-82
2022/04/18 03:17:26;;;;;;;10.80;6.87;;;0.10;99.90;;;;;;5040779;28;20193;-83
2022/04/18 03:19:55;;;;;;;11.40;5.77;;;;;;;;;;5042007;28;20420;-83
2022/04/18 03:22:21;;;;;;;7.63;5.13;;;0.10;99.90;;;;;;5044116;28;20725;-82
2022/04/18 03:24:47;;;;;;;9.20;5.17;;;;;;;;;;5040069;28;20484;-83
2022/04/18 03:27:12;;;;;;;5.30;4.40;;;0.10;99.90;;;;;;5039678;28;20186;-82
2022/04/18 03:29:38;;;;;;;6.50;4.20;;;;;;;;;;5039283;28;20467;-82
2022/04/18 03:32:05;;;;;;;6.90;4.17;;;0.00;99.90;;;;;;5039688;28;20656;-83
2022/04/18 03:34:31;;;;;;;6.03;4.00;;;0.00;99.90;;;;;;5039161;28;20431;-83
2022/04/18 03:39:50;;;;;;;4.57;3.80;;;;;;;;;;5041018;28;20181;-82
2022/04/18 03:42:18;;;;;;;4.87;3.80;;;0.00;99.90;;;;;;5039472;28;20433;-82
2022/04/18 03:44:46;;;;;;;5.73;4.00;;;0.10;99.90;;;;;;5039229;28;20433;-82
2022/04/18 03:47:13;;;;;;;4.13;3.67;;;;;;;;;;5038969;28;20428;-83
2022/04/18 03:49:39;;;;;;;5.83;4.13;;;0.00;99.90;;;;;;5038859;28;20500;-82
2022/04/18 03:52:06;;;;;;;6.23;4.13;;;0.10;99.90;;;;;;5039253;28;20436;-82
2022/04/18 03:54:32;;;;;;;5.67;3.63;;;;;;;;;;5040443;28;20220;-83
2022/04/18 03:56:58;;;;;;;5.80;3.73;;;;;;;;;;5039278;28;20424;-82
2022/04/18 03:59:24;;;;;;;5.20;4.13;;;;;;;;;;5039693;28;20401;-83
2022/04/18 04:01:50;;;;;;;6.37;4.07;;;;;;;;;;5038661;28;20527;-83
2022/04/18 04:04:15;;;;;;;5.03;4.20;;;-0.20;99.90;;;;;;5039779;28;20437;-83
2022/04/18 04:06:41;;;;;;;4.03;3.63;;;;;;;;;;5041035;28;20682;-83
2022/04/18 04:09:07;;;;;;;5.27;3.70;;;-0.20;99.90;;;;;;5041247;28;20174;-83
2022/04/18 04:11:33;;;;;;;5.03;4.10;;;;;;;;;;5040855;28;20221;-83
2022/04/18 04:13:59;;;;;;;4.50;3.93;;;;;;;;;;5040967;28;20200;-83
2022/04/18 04:16:25;;;;;;;6.57;4.63;;;;;;;;;;5039773;28;20511;-83
2022/04/18 04:18:51;;;;;;;44.87;24.73;;;;;;;;;;5040489;28;20775;-83
2022/04/18 04:21:18;;;;;;;46.50;26.23;;;;;;;;;;5039027;28;20506;-83
2022/04/18 04:23:44;;;;;;;34.33;18.73;;;;;;;;;;5039996;28;20413;-83
2022/04/18 04:26:09;;;;;;;20.53;13.27;;;-0.10;99.90;;;;;;5040435;28;20424;-82
2022/04/18 04:28:35;;;;;;;8.57;6.37;;;;;;;;;;5040337;28;20425;-82
2022/04/18 04:31:03;;;;;;;5.90;4.50;;;;;;;;;;5039092;28;20233;-83
2022/04/18 04:33:30;;;;;;;6.50;4.17;;;;;;;;;;5038503;28;20466;-82
2022/04/18 04:35:58;;;;;;;4.67;4.27;;;-0.20;99.90;;;;;;5039241;28;20448;-82
2022/04/18 04:38:25;;;;;;;6.27;4.20;;;-0.30;99.90;;;;;;5041631;28;20464;-82
2022/04/18 04:40:50;;;;;;;6.10;4.10;;;-0.10;99.90;;;;;;5039027;28;20441;-83
2022/04/18 04:43:16;;;;;;;4.77;3.97;;;-0.20;99.90;;;;;;5038546;28;20429;-83
2022/04/18 04:45:42;;;;;;;5.53;4.07;;;;;;;;;;5038468;28;20186;-82
2022/04/18 04:48:08;;;;;;;4.77;3.57;;;;;;;;;;5039475;28;20179;-83
2022/04/18 04:50:34;;;;;;;3.50;3.13;;;-0.20;99.90;;;;;;5038246;28;20810;-83
2022/04/18 04:53:00;;;;;;;4.07;3.37;;;;;;;;;;5038535;28;20631;-83
2022/04/18 04:55:28;;;;;;;4.17;3.30;;;;;;;;;;5038997;28;20421;-82
2022/04/18 04:57:54;;;;;;;4.50;3.70;;;;;;;;;;5038738;28;20412;-83
2022/04/18 05:00:20;;;;;;;4.30;3.27;;;;;;;;;;5038416;28;20496;-82
2022/04/18 05:02:46;;;;;;;3.47;3.17;;;;;;;;;;5039682;28;20440;-83
2022/04/18 05:05:12;;;;;;;4.90;3.57;;;;;;;;;;5039660;28;20409;-82
2022/04/18 05:07:38;;;;;;;3.40;2.67;;;;;;;;;;5037925;28;20445;-83
2022/04/18 05:10:05;;;;;;;4.97;3.63;;;-0.30;99.90;;;;;;5039307;28;20460;-82
2022/04/18 05:12:32;;;;;;;5.93;4.10;;;;;;;;;;5038946;28;20175;-83
2022/04/18 05:15:02;;;;;;;6.37;3.10;;;-0.20;99.90;;;;;;5039591;28;20401;-83
2022/04/18 05:17:29;;;;;;;4.90;3.60;;;;;;;;;;5039052;28;20424;-82
2022/04/18 05:19:55;;;;;;;4.23;3.70;;;;;;;;;;5039856;28;20413;-83
2022/04/18 05:22:20;;;;;;;4.60;3.23;;;0.10;99.90;;;;;;5037855;28;20845;-82
2022/04/18 05:24:46;;;;;;;6.80;4.37;;;0.20;99.90;;;;;;5039384;28;20208;-83
2022/04/18 05:27:15;;;;;;;6.40;4.20;;;;;;;;;;5038019;28;20223;-82
2022/04/18 05:29:44;;;;;;;10.03;6.73;;;0.40;99.90;;;;;;5039324;28;20293;-82
2022/04/18 05:32:10;;;;;;;9.80;6.80;;;0.80;99.90;;;;;;5037879;28;20433;-82
2022/04/18 05:34:36;;;;;;;7.40;6.27;;;;;;;;;;5037516;28;20434;-82
2022/04/18 05:37:02;;;;;;;5.63;4.13;;;;;;;;;;5037848;28;20456;-82
2022/04/18 05:39:28;;;;;;;4.53;3.47;;;;;;;;;;5037186;28;20413;-82
2022/04/18 05:41:56;;;;;;;4.63;3.57;;;0.90;99.90;;;;;;5038755;28;20493;-82
2022/04/18 05:44:22;;;;;;;5.47;4.23;;;1.00;99.90;;;;;;5041034;28;20189;-82
2022/04/18 05:46:48;;;;;;;5.07;3.93;;;1.10;99.90;;;;;;5042866;28;20895;-82
2022/04/18 05:49:14;;;;;;;6.27;3.93;;;1.10;99.90;;;;;;5041661;28;20425;-82
2022/04/18 05:51:39;;;;;;;5.07;4.17;;;1.30;99.90;;;;;;5042632;28;20468;-82
2022/04/18 05:54:05;;;;;;;5.43;4.43;;;;;;;;;;5043362;28;20326;-82
2022/04/18 05:56:31;;;;;;;6.20;4.03;;;1.40;99.90;;;;;;5044556;28;20209;-82
2022/04/18 05:58:57;;;;;;;5.63;3.63;;;1.70;99.90;;;;;;5043332;28;20409;-82
2022/04/18 06:01:23;;;;;;;8.40;6.00;;;1.80;99.90;;;;;;5046318;28;20281;-81
2022/04/18 06:03:49;;;;;;;9.13;6.30;;;2.00;99.90;;;;;;5042814;28;20417;-81
2022/04/18 06:06:15;;;;;;;6.63;5.30;;;2.10;99.90;;;;;;5045904;28;20178;-81
2022/04/18 06:08:41;;;;;;;8.70;5.20;;;2.30;99.90;;;;;;5055537;28;20162;-81
2022/04/18 06:11:07;;;;;;;5.53;3.30;;;2.30;99.90;;;;;;5058302;28;20471;-81
2022/04/18 06:13:33;;;;;;;4.83;3.60;;;2.50;99.90;;;;;;5057920;28;20188;-81
2022/04/18 06:15:59;;;;;;;3.50;3.20;;;;;;;;;;5045767;28;20170;-82
2022/04/18 06:18:26;;;;;;;3.87;3.43;;;2.70;99.90;;;;;;5043905;28;20178;-82
2022/04/18 06:20:52;;;;;;;4.57;3.60;;;;;;;;;;5046238;28;20445;-82
2022/04/18 06:23:18;;;;;;;4.53;3.90;;;2.80;99.90;;;;;;5046891;28;20424;-82
2022/04/18 06:25:44;;;;;;;5.80;3.70;;;;;;;;;;5043178;28;20186;-82
2022/04/18 06:28:10;;;;;;;4.57;3.60;;;3.00;99.90;;;;;;5044808;28;20647;-82
2022/04/18 06:30:36;;;;;;;4.07;3.33;;;;;;;;;;5043074;28;20472;-82
2022/04/18 06:33:02;;;;;;;4.73;2.60;;;;;;;;;;5044752;28;20420;-82
2022/04/18 06:35:28;;;;;;;3.77;3.40;;;3.30;99.90;;;;;;5043090;28;20459;-82
2022/04/18 06:37:53;;;;;;;4.27;2.67;;;3.50;99.90;;;;;;5043621;28;21002;-82
2022/04/18 06:40:19;;;;;;;3.90;3.47;;;3.60;99.90;;;;;;5043742;28;20204;-82
2022/04/18 06:42:45;;;;;;;3.43;2.83;;;3.70;99.90;;;;;;5043913;28;20232;-82
2022/04/18 06:45:11;;;;;;;2.93;2.67;;;3.90;99.90;;;;;;5043360;28;20193;-82
2022/04/18 06:47:36;;;;;;;4.37;3.20;;;4.00;99.90;;;;;;5045305;28;20185;-83
2022/04/18 06:50:08;;;;;;;3.20;2.90;;;4.20;99.90;;;;;;5042960;28;20690;-82
2022/04/18 06:52:41;;;;;;;4.53;3.03;;;4.20;99.90;;;;;;5043143;28;20177;-82
2022/04/18 06:55:08;;;;;;;3.43;2.83;;;4.40;99.90;;;;;;5042942;28;20425;-82
2022/04/18 06:57:34;;;;;;;3.23;2.80;;;4.50;99.90;;;;;;5044721;28;20500;-82
2022/04/18 07:00:01;;;;;;;6.57;3.50;;;;;;;;;;5044808;28;20989;-83
2022/04/18 07:02:27;;;;;;;4.67;3.83;;;;;;;;;;5044707;28;20528;-83
2022/04/18 07:04:53;;;;;;;6.27;3.53;;;;;;;;;;5043056;28;20424;-82
2022/04/18 07:07:19;;;;;;;5.87;2.93;;;;;;;;;;5038843;28;20484;-83
2022/04/18 07:09:45;;;;;;;3.70;3.33;;;5.20;99.90;;;;;;5043273;28;20452;-83
2022/04/18 07:12:11;;;;;;;3.83;3.50;;;5.40;99.90;;;;;;5040322;28;20443;-83
2022/04/18 07:14:38;;;;;;;3.80;3.40;;;5.50;99.90;;;;;;5046455;28;20174;-83
2022/04/18 07:17:04;;;;;;;3.93;3.47;;;5.70;99.90;;;;;;5040148;28;20175;-83
2022/04/18 07:19:31;;;;;;;3.60;3.30;;;5.80;99.90;;;;;;5040797;28;20421;-83
2022/04/18 07:21:57;;;;;;;4.77;3.83;;;6.00;99.90;;;;;;5040711;28;20504;-83
2022/04/18 07:24:23;;;;;;;5.27;3.60;;;6.20;99.90;;;;;;5041179;28;20174;-82
2022/04/18 07:26:49;;;;;;;4.50;2.77;;;6.40;99.90;;;;;;5041490;28;20178;-83
2022/04/18 07:29:15;;;;;;;3.70;2.70;;;;;;;;;;5041399;28;20185;-83
2022/04/18 07:31:41;;;;;;;3.63;3.20;;;7.40;99.90;;;;;;5041542;28;20210;-83
2022/04/18 07:34:07;;;;;;;3.10;2.77;;;8.10;99.90;;;;;;5041805;28;20670;-83
2022/04/18 07:36:33;;;;;;;3.13;2.83;;;8.90;99.90;;;;;;5041621;28;20180;-83
2022/04/18 07:38:59;;;;;;;3.27;2.17;;;9.60;99.90;;;;;;5043833;28;20192;-82
2022/04/18 07:41:29;;;;;;;2.67;1.90;;;10.50;99.90;;;;;;5042655;28;20197;-81
2022/04/18 07:43:57;;;;;;;2.20;1.90;;;11.20;98.80;;;;;;5041575;28;20226;-83
2022/04/18 07:46:23;;;;;;;3.00;1.90;;;11.80;94.50;;;;;;5042894;28;20625;-82
2022/04/18 07:48:50;;;;;;;2.43;1.70;;;11.60;91.20;;;;;;5043530;28;20183;-84
2022/04/18 07:51:32;;;;;;;3.47;1.80;;;11.90;88.00;;;;;;5041917;28;20240;-83
2022/04/18 07:53:58;;;;;;;1.80;1.60;;;12.50;84.30;;;;;;5042439;28;20216;-83
2022/04/18 07:56:24;;;;;;;3.13;1.90;;;12.60;83.30;;;;;;5040710;28;20170;-83
2022/04/18 07:58:51;;;;;;;3.57;1.60;;;12.50;80.30;;;;;;5042632;28;20175;-84
2022/04/18 08:01:18;;;;;;;2.47;1.77;;;12.60;80.00;;;;;;5042897;28;20202;-85
2022/04/18 08:03:44;;;;;;;2.37;1.80;;;12.70;78.00;;;;;;5042455;28;20743;-82
2022/04/18 08:06:10;;;;;;;2.77;1.77;;;13.30;74.70;;;;;;5043894;28;20201;-83
2022/04/18 08:08:35;;;;;;;4.03;2.00;;;13.10;75.00;;;;;;5043011;28;20544;-82
2022/04/18 08:11:02;;;;;;;3.40;1.50;;;13.10;74.40;;;;;;5052671;28;20216;-82
2022/04/18 08:13:28;;;;;;;2.37;1.97;;;13.60;73.20;;;;;;5058862;28;20163;-82
2022/04/18 08:15:54;;;;;;;2.57;1.90;;;14.30;71.10;;;;;;5058641;28;20185;-83
2022/04/18 08:18:20;;;;;;;2.57;1.93;;;14.60;67.30;;;;;;5047006;28;20178;-83
2022/04/18 08:20:46;;;;;;;2.27;1.53;;;14.60;69.70;;;;;;5043494;28;20194;-83
2022/04/18 08:23:11;;;;;;;4.40;2.07;;;14.90;69.30;;;;;;5043099;28;20182;-83
2022/04/18 08:25:37;;;;;;;2.30;1.63;;;15.00;63.50;;;;;;5050007;28;20238;-83
2022/04/18 08:28:03;;;;;;;3.03;1.77;;;14.30;61.50;;;;;;5057092;28;20216;-81
2022/04/18 08:30:29;;;;;;;3.97;2.33;;;14.40;59.40;;;;;;5049374;28;20240;-83
2022/04/18 08:32:55;;;;;;;3.00;2.00;;;14.60;64.70;;;;;;5048950;28;20218;-83
2022/04/18 08:35:21;;;;;;;2.10;1.77;;;15.10;61.60;;;;;;5047079;28;20174;-82
2022/04/18 08:37:48;;;;;;;2.37;1.60;;;15.00;59.50;;;;;;5047945;28;20192;-79
2022/04/18 08:40:14;;;;;;;2.77;1.63;;;14.70;61.80;;;;;;5048603;28;20205;-82
2022/04/18 08:42:41;;;;;;;2.50;1.80;;;14.90;61.70;;;;;;5046223;28;20175;-81
2022/04/18 08:45:09;;;;;;;2.63;1.80;;;15.10;58.60;;;;;;5044006;28;20182;-81
2022/04/18 08:53:12;;;;;;;2.40;1.83;;;15.00;58.10;;;;;;5045381;28;20166;-82
2022/04/18 08:55:38;;;;;;;2.30;1.97;;;14.90;58.60;;;;;;5043413;28;20182;-81
2022/04/18 08:58:04;;;;;;;1.93;1.50;;;14.70;58.30;;;;;;5045132;28;20171;-82
2022/04/18 09:00:30;;;;;;;1.90;1.50;;;14.90;58.20;;;;;;5042666;28;20207;-81
2022/04/18 09:02:56;;;;;;;2.83;1.77;;;14.80;57.90;;;;;;5043792;28;20549;-84
2022/04/18 09:05:22;;;;;;;2.17;1.70;;;14.90;57.80;;;;;;5045100;28;20305;-82
2022/04/18 09:08:02;;;;;;;2.70;1.90;;;14.70;61.10;;;;;;5046067;28;20180;-81
2022/04/18 09:10:28;;;;;;;2.43;1.73;;;14.80;56.90;;;;;;5044001;28;20209;-82
2022/04/18 09:13:02;;;;;;;2.93;2.10;;;14.60;59.30;;;;;;5038657;28;20182;-84
2022/04/18 09:15:31;;;;;;;3.90;2.03;;;14.60;58.60;;;;;;5039910;28;20225;-84
2022/04/18 09:18:07;;;;;;;2.47;2.07;;;14.20;57.80;;;;;;5042302;28;20178;-82
2022/04/18 09:20:44;;;;;;;3.67;2.37;;;14.40;58.50;;;;;;5042454;28;20221;-84
2022/04/18 09:23:24;;;;;;;2.90;1.80;;;14.40;59.10;;;;;;5039781;28;20217;-82
2022/04/18 09:26:10;;;;;;;2.23;1.80;;;14.20;58.00;;;;;;5042745;28;20163;-82
2022/04/18 09:28:40;;;;;;;2.63;2.20;;;14.20;57.70;;;;;;5042032;28;20164;-84
2022/04/18 09:31:11;;;;;;;3.47;1.87;;;14.50;58.20;;;;;;5041052;28;20208;-83
2022/04/18 09:33:56;;;;;;;3.77;2.33;;;14.90;62.20;;;;;;5041938;28;20185;-83
2022/04/18 09:36:23;;;;;;;2.90;2.23;;;15.00;55.60;;;;;;5042537;28;20164;-83
2022/04/18 09:38:51;;;;;;;3.30;2.10;;;14.90;56.70;;;;;;5040446;28;20189;-82
2022/04/18 09:41:25;;;;;;;3.53;2.00;;;14.80;57.40;;;;;;5042820;28;20208;-83
2022/04/18 09:43:53;;;;;;;4.23;2.20;;;15.20;57.50;;;;;;5040882;28;20172;-83
2022/04/18 09:46:19;;;;;;;2.93;2.57;;;15.50;59.70;;;;;;5040660;28;20188;-81
2022/04/18 09:48:47;;;;;;;2.73;2.13;;;15.60;58.70;;;;;;5040734;28;20187;-82
2022/04/18 09:51:15;;;;;;;4.83;2.00;;;15.70;58.10;;;;;;5043036;28;20235;-84
2022/04/18 09:53:45;;;;;;;4.00;2.33;;;15.60;57.40;;;;;;5040504;28;20177;-83
2022/04/18 09:56:19;;;;;;;4.90;2.20;;;15.40;57.20;;;;;;5043238;28;20671;-83
2022/04/18 09:58:45;;;;;;;3.30;2.47;;;15.60;57.40;;;;;;5037662;28;20185;-83
2022/04/18 10:01:12;;;;;;;2.47;2.00;;;15.60;57.40;;;;;;5038057;28;20202;-81
2022/04/18 10:03:39;;;;;;;2.53;2.10;;;15.30;57.20;;;;;;5039362;28;20228;-82
2022/04/18 10:06:06;;;;;;;2.33;1.90;;;15.20;56.60;;;;;;5040534;28;20308;-82
2022/04/18 10:08:32;;;;;;;4.23;2.33;;;15.30;57.50;;;;;;5037554;28;20178;-82
2022/04/18 10:11:00;;;;;;;3.50;2.40;;;15.10;58.70;;;;;;5034588;28;20228;-81
2022/04/18 10:13:27;;;;;;;3.00;2.30;;;15.20;58.80;;;;;;5038755;28;20166;-83
2022/04/18 10:15:54;;;;;;;3.23;2.00;;;15.50;59.20;;;;;;5051415;28;20209;-82
2022/04/18 10:18:22;;;;;;;2.73;2.07;;;15.90;57.10;;;;;;5053339;28;20184;-81
2022/04/18 10:20:58;;;;;;;3.17;2.63;;;15.50;57.20;;;;;;5054127;28;20190;-79
2022/04/18 10:23:58;;;;;;;2.50;2.20;;;15.40;58.40;;;;;;5040005;28;20173;-80
2022/04/18 10:26:47;;;;;;;3.70;2.50;;;15.60;58.00;;;;;;5040583;28;20531;-83
2022/04/18 10:29:32;;;;;;;4.03;2.10;;;15.80;56.90;;;;;;5037295;28;20175;-82
2022/04/18 10:32:03;;;;;;;2.10;1.90;;;16.30;59.40;;;;;;5044108;28;20226;-83
2022/04/18 10:34:31;;;;;;;3.70;2.20;;;16.40;55.10;;;;;;5042576;28;20702;-84
2022/04/18 10:37:00;;;;;;;2.27;1.90;;;16.50;60.10;;;;;;5043453;28;20614;-83
2022/04/18 10:39:34;;;;;;;2.77;2.40;;;16.50;53.30;;;;;;5043426;28;20170;-83
2022/04/18 10:42:28;;;;;;;3.83;2.80;;;16.40;53.60;;;;;;5043129;28;20234;-83
2022/04/18 10:45:06;;;;;;;3.60;2.50;;;16.40;55.90;;;;;;5042832;28;20163;-83
2022/04/18 10:48:00;;;;;;;2.67;2.10;;;16.40;54.90;;;;;;5042295;28;20166;-82
2022/04/18 10:50:32;;;;;;;2.30;2.10;;;16.60;54.00;;;;;;5042786;28;20175;-83
2022/04/18 10:53:17;;;;;;;2.63;2.17;;;16.70;56.70;;;;;;5044700;28;20612;-83
2022/04/18 10:55:52;;;;;;;2.23;1.87;;;17.10;54.70;;;;;;5042811;28;20269;-83
2022/04/18 10:58:21;;;;;;;4.00;2.30;;;17.00;52.80;;;;;;5045305;28;20200;-82
2022/04/18 11:00:55;;;;;;;3.73;2.10;;;17.10;53.40;;;;;;5042054;28;20564;-83
2022/04/18 11:03:46;;;;;;;2.20;2.00;;;17.10;51.80;;;;;;5042475;28;20179;-83
2022/04/18 11:06:18;;;;;;;4.40;2.10;;;17.30;53.60;;;;;;5043218;28;20213;-83
2022/04/18 11:09:08;;;;;;;3.40;2.13;;;17.30;50.10;;;;;;5044247;28;20197;-82
2022/04/18 11:11:43;;;;;;;2.07;1.87;;;17.10;52.80;;;;;;5044088;28;20202;-83
2022/04/18 11:14:24;;;;;;;2.30;2.00;;;17.30;52.40;;;;;;5045303;28;20638;-84
2022/04/18 11:16:54;;;;;;;2.17;1.90;;;17.10;51.50;;;;;;5046106;28;20166;-84
2022/04/18 11:19:24;;;;;;;2.33;1.73;;;16.80;50.60;;;;;;5044320;28;20204;-83
2022/04/18 11:21:56;;;;;;;2.43;1.87;;;16.70;52.20;;;;;;5044030;28;20263;-83
2022/04/18 11:24:47;;;;;;;3.20;2.07;;;16.70;52.10;;;;;;5042842;28;20580;-81
2022/04/18 11:27:18;;;;;;;2.40;1.90;;;16.90;55.10;;;;;;5043477;28;20168;-84
2022/04/18 11:29:46;;;;;;;2.90;1.87;;;17.00;50.40;;;;;;5043323;28;20248;-82
2022/04/18 11:32:17;;;;;;;2.80;2.00;;;17.00;49.90;;;;;;5043066;28;20534;-82
2022/04/18 11:34:44;;;;;;;2.30;2.10;;;17.50;49.20;;;;;;5042865;28;20178;-83
2022/04/18 11:37:13;;;;;;;3.43;2.00;;;17.60;49.40;;;;;;5045081;28;20209;-84
2022/04/18 11:39:47;;;;;;;3.10;1.73;;;17.70;50.60;;;;;;5042947;28;20174;-85
2022/04/18 11:42:17;;;;;;;2.50;1.73;;;17.90;50.10;;;;;;5043552;28;20187;-83
2022/04/18 11:44:44;;;;;;;3.10;1.70;;;18.20;49.80;;;;;;5046421;28;20182;-83
2022/04/18 11:47:14;;;;;;;2.17;1.70;;;18.80;47.00;;;;;;5057474;28;20175;-83
2022/04/18 11:49:41;;;;;;;2.00;1.80;;;18.90;47.50;;;;;;5042722;28;20659;-83
2022/04/18 11:52:20;;;;;;;2.57;1.63;;;19.20;47.30;;;;;;5046519;28;20193;-80
2022/04/18 11:55:03;;;;;;;1.83;1.40;;;19.30;45.60;;;;;;5057261;28;20357;-83
2022/04/18 11:57:32;;;;;;;1.90;1.43;;;19.40;45.60;;;;;;5055792;28;20207;-81
2022/04/18 11:59:59;;;;;;;2.60;1.87;;;19.10;45.00;;;;;;5050756;28;20202;-83
2022/04/18 12:08:02;;;;;;;2.63;1.60;;;19.90;44.80;;;;;;5042065;28;20186;-84
2022/04/18 12:10:31;;;;;;;1.77;1.67;;;19.30;44.80;;;;;;5039364;28;20272;-83
2022/04/18 12:12:58;;;;;;;2.57;1.80;;;19.40;45.60;;;;;;5039041;28;20176;-83
2022/04/18 12:15:25;;;;;;;2.37;1.50;;;19.60;45.90;;;;;;5040019;28;20188;-83
2022/04/18 12:17:53;;;;;;;1.70;1.50;;;19.70;43.40;;;;;;5039638;28;20179;-83
2022/04/18 12:20:30;;;;;;;2.53;1.50;;;19.60;44.10;;;;;;5040988;28;20199;-83
2022/04/18 12:23:00;;;;;;;1.50;1.40;;;19.50;45.90;;;;;;5038875;28;20175;-82
2022/04/18 12:25:31;;;;;;;2.63;1.27;;;19.90;43.80;;;;;;5040631;28;20225;-83
2022/04/18 12:28:03;;;;;;;2.37;1.53;;;19.80;41.90;;;;;;5041054;28;20175;-82
2022/04/18 12:30:29;;;;;;;3.17;1.53;;;19.70;41.00;;;;;;5041582;28;20211;-82
2022/04/18 12:32:55;;;;;;;2.03;1.67;;;20.00;41.90;;;;;;5044948;28;20207;-82
2022/04/18 12:35:42;;;;;;;1.80;1.53;;;20.30;41.20;;;;;;5038923;28;20183;-81
2022/04/18 12:38:12;;;;;;;1.97;1.47;;;20.60;41.20;;;;;;5039438;28;20194;-84
2022/04/18 12:40:40;;;;;;;1.90;1.20;;;21.00;39.40;;;;;;5038800;28;20225;-82
2022/04/18 12:43:16;;;;;;;1.87;1.40;;;21.40;41.00;;;;;;5040341;28;20582;-82
2022/04/18 12:45:52;;;;;;;1.63;1.20;;;21.30;40.40;;;;;;5040554;28;20570;-83
2022/04/18 12:48:28;;;;;;;1.57;1.27;;;20.80;38.30;;;;;;5042673;28;20172;-83
2022/04/18 12:50:55;;;;;;;1.50;1.33;;;21.20;41.30;;;;;;5045559;28;20605;-83
2022/04/18 12:53:22;;;;;;;1.70;1.50;;;21.90;38.80;;;;;;5041520;28;20188;-83
2022/04/18 12:56:04;;;;;;;3.53;1.60;;;22.00;40.30;;;;;;5039403;28;20666;-83
2022/04/18 12:58:37;;;;;;;2.43;1.60;;;22.20;39.90;;;;;;5038954;28;20179;-84
2022/04/18 13:01:03;;;;;;;3.03;1.50;;;21.80;39.90;;;;;;5037953;28;20714;-84
2022/04/18 13:03:29;;;;;;;2.30;1.43;;;21.80;38.80;;;;;;5038321;28;20272;-83
2022/04/18 13:05:54;;;;;;;3.00;1.73;;;21.20;38.70;;;;;;5038404;28;20274;-83
2022/04/18 13:08:20;;;;;;;2.03;1.73;;;21.50;40.00;;;;;;5040116;28;20185;-84
2022/04/18 13:10:46;;;;;;;3.97;1.90;;;22.10;38.80;;;;;;5039676;28;20698;-83
2022/04/18 13:13:17;;;;;;;2.50;1.80;;;22.60;39.90;;;;;;5040203;28;20178;-81
2022/04/18 13:15:45;;;;;;;2.80;1.90;;;22.50;38.60;;;;;;5036666;28;20184;-82
2022/04/18 13:18:25;;;;;;;2.27;1.77;;;22.30;39.30;;;;;;5037632;28;20636;-82
2022/04/18 13:20:51;;;;;;;2.70;2.07;;;21.80;39.80;;;;;;5035371;28;20223;-84
2022/04/18 13:23:18;;;;;;;2.10;1.90;;;22.10;41.40;;;;;;5034778;28;20180;-81
2022/04/18 13:25:45;;;;;;;2.17;1.90;;;22.40;38.10;;;;;;5035089;28;20205;-82
2022/04/18 13:28:11;;;;;;;6.10;1.73;;;21.90;38.60;;;;;;5038991;28;20697;-83
2022/04/18 13:30:40;;;;;;;3.03;2.73;;;21.80;38.20;;;;;;5039377;28;20566;-82
2022/04/18 13:33:07;;;;;;;4.60;2.00;;;20.50;39.80;;;;;;5041525;28;20170;-82
2022/04/18 13:38:22;;;;;;;2.60;1.80;;;20.40;41.50;;;;;;5040667;28;20269;-83
2022/04/18 13:40:48;;;;;;;2.73;1.63;;;20.80;40.00;;;;;;5040319;28;20230;-83